Cheltenham, PA (19012)

1:51 PM EST on February 07, 2016 (GMT -0500)
Fox Chase | | Change Station
CLOSE
Current Station
Personal Weather Station
Location: Philadelphia, PA
Elevation: 154 ft
Nearby Weather Stations

Elev 154 ft 40.06 °N, 75.07 °W | Updated 28 seconds ago

Overcast
Overcast
46.4 °F
Feels Like 46 °F
N
0.9
Wind Variable Wind from South
Gusts 2.5 mph

Today
High -- | Low -- °F
--% Chance of Precip.
Yesterday
High -- | Low -- °F
Precip. -- in
Pressure 30.13 in
Visibility 10.0 miles
Clouds Clear
Windchill 46 °F
Dew Point 19 °F
Humidity 33%
Rainfall 0.00 in
Snow Depth Not available.
7:03 AM 5:26 PM
Waning Crescent, 1% visible
METAR KPNE 071754Z AUTO 08005KT 10SM CLR 08/M06 A3013 RMK AO2 SLP202 T00781056 10078 21044 56027 TSNO
Pressure 30.13 in
Visibility 10.0 miles
Clouds Clear
Windchill 46 °F
Dew Point 19 °F
Humidity 33%
Rainfall 0.00 in
Snow Depth Not available.
7:03 AM 5:26 PM
Waning Crescent, 1% visible
METAR KPNE 071754Z AUTO 08005KT 10SM CLR 08/M06 A3013 RMK AO2 SLP202 T00781056 10078 21044 56027 TSNO

10-Day Weather Forecast

Almanac

Astronomy

Feb. 07, 2016 Rise Set
Actual Time
Civil Twilight
Nautical Twilight
Astronomical Twilight
Moon
Length of Visible Light
Length of Day
Tomorrow will be .
, % of the Moon is Illuminated

Today's Extremes

State Highs State Lows

Community

WunderPhotos

Upload Photos

1,891,280 photos uploaded!

WunderBlog® & News

Nearby

Air Quality

  Air Quality AQ Index Pollutant
Not available.

Snow Depth

Station Depth Elevation

Earthquake Activity

City Distance Mag. Time & Date
Minimum magnitude displayed is 2.5.

Coastal Water Temperatures

Place Temperature

Stations

Nearby Weather Stations

Station Location Temp. Windchill Dew Point Humidity Wind Precip. Elev Updated Type
                   

Watches & Warnings

There are currently no watches in effect.